Time;durP1;ratioP1;P1;durP2;ratioP2;P2;SDS_P1;SDS_P2;PMS_P1;PMS_P2;Temp;Humidity;BMP_temperature;BMP_pressure;BME280_temperature;BME280_humidity;BME280_pressure;Samples;Min_cycle;Max_cycle;Signal;HPM_P1;HPM_P2
2021/05/04 00:00:50;;;;;;;7.60;5.32;;;;;;;6.51;32.97;94573.06;5016242;28;20111;-64
2021/05/04 00:03:15;;;;;;;6.35;4.50;;;;;;;6.39;32.78;94567.31;5013519;28;20106;-64
2021/05/04 00:05:40;;;;;;;7.28;5.00;;;;;;;6.33;33.81;94560.78;5015581;28;20148;-64
2021/05/04 00:08:06;;;;;;;8.48;5.47;;;;;;;6.59;32.34;94548.84;5021031;28;20438;-64
2021/05/04 00:10:31;;;;;;;7.30;3.58;;;;;;;6.50;32.43;94550.03;5018219;28;20208;-64
2021/05/04 00:12:57;;;;;;;5.93;4.07;;;;;;;6.49;33.31;94545.81;5016271;28;20078;-64
2021/05/04 00:15:22;;;;;;;7.28;4.28;;;;;;;6.36;33.29;94533.13;5028202;28;20443;-64
2021/05/04 00:17:48;;;;;;;4.07;3.58;;;;;;;6.58;32.34;94536.56;5023949;28;20114;-64
2021/05/04 00:20:13;;;;;;;5.13;3.63;;;;;;;6.55;32.08;94527.38;5019567;28;20074;-64
2021/05/04 00:22:39;;;;;;;5.13;3.60;;;;;;;5.97;32.83;94520.50;5019498;28;20093;-64
2021/05/04 00:25:04;;;;;;;5.60;3.70;;;;;;;6.21;33.80;94508.19;5023372;28;20085;-64
2021/05/04 00:27:30;;;;;;;4.60;3.35;;;;;;;6.43;32.75;94501.63;5018585;28;20179;-64
2021/05/04 00:29:55;;;;;;;6.57;4.03;;;;;;;6.49;33.22;94494.72;5015490;28;20543;-64
2021/05/04 00:32:21;;;;;;;6.22;4.35;;;;;;;6.04;32.75;94500.94;5013502;28;20185;-64
2021/05/04 00:34:46;;;;;;;6.68;4.68;;;;;;;6.08;33.38;94489.03;5016234;28;20189;-64
2021/05/04 00:37:12;;;;;;;9.38;4.93;;;;;;;6.14;33.79;94466.00;5020432;28;20085;-64
2021/05/04 00:39:38;;;;;;;6.35;4.32;;;;;;;6.39;33.20;94455.19;5016872;28;20113;-64
2021/05/04 00:42:03;;;;;;;8.18;5.18;;;;;;;6.44;33.39;94445.94;5014056;28;20313;-64
2021/05/04 00:44:29;;;;;;;5.85;4.47;;;;;;;5.91;33.75;94450.31;5020819;28;20094;-64
2021/05/04 00:46:55;;;;;;;5.13;3.83;;;;;;;6.08;33.23;94442.63;5018632;28;20116;-64
2021/05/04 00:49:20;;;;;;;4.25;3.45;;;;;;;6.17;33.35;94442.97;5017937;28;20120;-64
2021/05/04 00:51:46;;;;;;;7.00;4.78;;;;;;;6.45;33.73;94426.75;5018134;28;20086;-64
2021/05/04 00:54:12;;;;;;;8.13;4.60;;;;;;;6.45;33.15;94420.59;5017836;28;20531;-64
2021/05/04 00:56:37;;;;;;;5.13;3.65;;;;;;;6.52;33.16;94409.84;5010353;28;20070;-64
2021/05/04 00:59:03;;;;;;;4.75;3.22;;;;;;;6.69;32.01;94406.31;5011927;28;20156;-64
2021/05/04 01:01:30;;;;;;;6.50;4.70;;;;;;;6.29;33.64;94383.41;5014061;28;20082;-64
2021/05/04 01:03:55;;;;;;;6.07;3.25;;;;;;;6.51;32.08;94382.19;5021417;28;20093;-64
2021/05/04 01:06:20;;;;;;;5.78;3.97;;;;;;;6.30;33.07;94390.34;5016398;28;20113;-64
2021/05/04 01:08:46;;;;;;;6.40;4.03;;;;;;;6.58;32.39;94391.38;5012908;28;20498;-64
2021/05/04 01:11:11;;;;;;;5.80;3.70;;;;;;;6.42;33.57;94373.00;5014554;28;20191;-65
2021/05/04 01:13:37;;;;;;;6.65;3.90;;;;;;;6.46;33.17;94368.41;5015886;28;20451;-64
2021/05/04 01:16:02;;;;;;;6.10;3.92;;;;;;;6.74;32.19;94370.16;5019624;28;20070;-65
2021/05/04 01:18:28;;;;;;;6.47;4.43;;;;;;;6.54;32.75;94353.78;5019039;28;20144;-65
2021/05/04 01:20:53;;;;;;;5.90;3.72;;;;;;;5.46;34.13;94341.09;5011925;28;20089;-65
2021/05/04 01:23:19;;;;;;;5.60;3.40;;;;;;;6.00;33.45;94347.09;5013797;28;20097;-65
2021/05/04 01:25:44;;;;;;;8.18;3.38;;;;;;;6.12;32.89;94336.66;5009490;28;20522;-65
2021/05/04 01:28:09;;;;;;;4.95;3.90;;;;;;;6.31;33.05;94327.38;5012129;28;20589;-65
2021/05/04 01:30:35;;;;;;;5.15;3.28;;;;;;;6.03;33.04;94322.88;5017995;28;20201;-64
2021/05/04 01:33:01;;;;;;;5.88;4.10;;;;;;;6.22;33.26;94314.38;5011027;28;20171;-64
2021/05/04 01:35:26;;;;;;;3.95;3.15;;;;;;;6.19;33.49;94317.06;5010026;28;20164;-64
2021/05/04 01:37:52;;;;;;;3.97;3.20;;;;;;;5.99;32.93;94321.38;5011290;28;20189;-64
2021/05/04 01:40:18;;;;;;;4.38;3.30;;;;;;;6.14;33.07;94307.50;5007859;28;20078;-64
2021/05/04 01:42:44;;;;;;;7.47;4.38;;;;;;;6.52;32.79;94313.06;5010888;28;20521;-64
2021/05/04 01:45:11;;;;;;;5.85;4.25;;;;;;;6.15;34.01;94305.59;5006865;28;20086;-64
2021/05/04 01:47:37;;;;;;;3.83;2.92;;;;;;;6.11;33.20;94296.75;5008445;28;20090;-64
2021/05/04 01:50:03;;;;;;;3.83;3.17;;;;;;;6.16;34.65;94288.31;5012800;28;20172;-64
2021/05/04 01:52:28;;;;;;;4.75;3.60;;;;;;;6.27;33.22;94280.94;5009970;28;20090;-64
2021/05/04 01:54:54;;;;;;;5.60;4.15;;;;;;;6.41;34.13;94288.91;5009973;28;20128;-64
2021/05/04 01:57:19;;;;;;;4.07;3.05;;;;;;;6.46;33.17;94268.97;5012140;28;20183;-64
2021/05/04 01:59:45;;;;;;;5.57;3.22;;;;;;;6.01;33.42;94271.50;5009576;28;20606;-64
2021/05/04 02:02:10;;;;;;;4.82;3.55;;;;;;;6.35;33.31;94260.16;5013128;28;20506;-64
2021/05/04 02:04:36;;;;;;;6.95;3.95;;;;;;;5.61;35.64;94267.44;4965602;28;20782;-64
2021/05/04 02:07:03;;;;;;;5.65;3.80;;;;;;;6.17;33.99;94263.72;4987544;28;20094;-64
2021/05/04 02:09:29;;;;;;;3.60;2.88;;;;;;;6.54;33.28;94267.75;5016452;28;20097;-64
2021/05/04 02:11:55;;;;;;;7.95;3.20;;;;;;;6.15;33.29;94257.22;5012316;28;20110;-64
2021/05/04 02:14:20;;;;;;;4.43;3.42;;;;;;;6.46;34.18;94250.91;5013103;28;20894;-64
2021/05/04 02:16:45;;;;;;;4.55;3.13;;;;;;;6.59;32.83;94253.09;5010831;28;20464;-64
2021/05/04 02:19:11;;;;;;;5.38;3.50;;;;;;;6.71;33.04;94231.91;5013901;28;20168;-64
2021/05/04 02:21:36;;;;;;;5.30;3.67;;;;;;;6.07;33.75;94237.69;5010475;28;20606;-64
2021/05/04 02:24:02;;;;;;;4.47;3.30;;;;;;;5.31;34.52;94230.34;5014834;28;20071;-64
2021/05/04 02:26:28;;;;;;;4.13;2.70;;;;;;;6.11;33.95;94211.56;5011265;28;20098;-64
2021/05/04 02:28:53;;;;;;;5.82;3.35;;;;;;;6.46;34.83;94215.22;5012972;28;20078;-64
2021/05/04 02:31:18;;;;;;;3.65;2.78;;;;;;;5.81;33.81;94214.03;5014501;28;20097;-64
2021/05/04 02:33:44;;;;;;;4.47;3.00;;;;;;;6.39;33.39;94201.78;5013310;28;20586;-64
2021/05/04 02:36:10;;;;;;;5.15;2.88;;;;;;;6.47;33.74;94187.16;5023682;28;20082;-65
2021/05/04 02:38:35;;;;;;;4.53;2.78;;;;;;;6.54;32.68;94181.72;5012878;28;20541;-65
2021/05/04 02:41:01;;;;;;;4.53;3.50;;;;;;;6.16;33.63;94173.53;5012389;28;20102;-64
2021/05/04 02:43:26;;;;;;;5.55;2.60;;;;;;;6.44;32.95;94161.78;5010938;28;20565;-64
2021/05/04 02:45:52;;;;;;;5.53;3.95;;;;;;;6.58;33.87;94160.94;5016581;28;20103;-65
2021/05/04 02:48:18;;;;;;;4.97;2.80;;;;;;;6.60;32.64;94157.84;5011448;28;20077;-64
2021/05/04 02:50:43;;;;;;;7.57;4.20;;;;;;;6.26;33.86;94158.50;5013481;28;20114;-64
2021/05/04 02:53:08;;;;;;;7.25;4.25;;;;;;;6.64;33.10;94145.91;5010578;28;20073;-64
2021/05/04 02:55:34;;;;;;;5.72;4.10;;;;;;;6.79;32.80;94154.63;5013407;28;20101;-65
2021/05/04 02:57:59;;;;;;;10.40;4.18;;;;;;;6.02;33.26;94137.94;5013391;28;20555;-64
2021/05/04 03:00:25;;;;;;;4.25;2.67;;;;;;;6.63;32.95;94135.56;5008199;28;20918;-64
2021/05/04 03:02:50;;;;;;;4.55;3.13;;;;;;;5.08;34.86;94136.88;5009831;28;20586;-64
2021/05/04 03:05:16;;;;;;;4.53;3.03;;;;;;;6.09;33.16;94127.16;5016044;28;20082;-64
2021/05/04 03:07:41;;;;;;;3.00;2.70;;;;;;;4.98;34.19;94140.38;5010250;28;20128;-64
2021/05/04 03:10:07;;;;;;;6.20;3.00;;;;;;;4.13;36.09;94125.94;5011570;28;20619;-64
2021/05/04 03:12:32;;;;;;;4.65;3.00;;;;;;;5.09;34.88;94114.28;5010441;28;20082;-64
2021/05/04 03:14:58;;;;;;;5.05;2.72;;;;;;;5.44;33.58;94118.75;5010248;28;20145;-64
2021/05/04 03:17:23;;;;;;;3.58;2.65;;;;;;;5.45;33.71;94103.41;5029451;28;20098;-64
2021/05/04 03:19:49;;;;;;;7.05;2.50;;;;;;;5.84;32.89;94105.84;5006044;28;20102;-64
2021/05/04 03:22:14;;;;;;;11.10;2.80;;;;;;;5.81;32.60;94083.22;5005581;28;20102;-65
2021/05/04 03:24:40;;;;;;;6.00;3.78;;;;;;;5.20;34.43;94098.19;5004394;28;20070;-65
2021/05/04 03:27:06;;;;;;;3.00;2.50;;;;;;;5.12;34.14;94070.59;5012739;28;20106;-64
2021/05/04 03:29:31;;;;;;;3.97;2.28;;;;;;;4.64;34.63;94063.13;5006585;28;20082;-64
2021/05/04 03:31:56;;;;;;;5.05;2.53;;;;;;;4.47;34.74;94086.09;5014074;28;20108;-64
2021/05/04 03:34:22;;;;;;;3.42;2.28;;;;;;;4.57;33.88;94081.91;5011383;28;20161;-64
2021/05/04 03:36:47;;;;;;;4.78;2.38;;;;;;;4.98;33.55;94081.38;5017947;28;20121;-64
2021/05/04 03:39:13;;;;;;;4.85;2.20;;;;;;;4.78;33.09;94081.81;5011126;28;20094;-64
2021/05/04 03:41:38;;;;;;;4.03;2.20;;;;;;;3.89;34.16;94078.53;5014411;28;20322;-64
2021/05/04 03:44:04;;;;;;;4.93;2.20;;;;;;;4.23;33.71;94070.84;5016700;28;20070;-64
2021/05/04 03:46:29;;;;;;;4.63;2.10;;;;;;;4.26;33.11;94054.78;5016086;28;20102;-64
2021/05/04 03:48:55;;;;;;;16.35;2.28;;;;;;;3.27;34.95;94052.06;5010446;28;20244;-64
2021/05/04 03:51:20;;;;;;;3.05;1.80;;;;;;;3.83;34.32;94054.03;4981371;28;20447;-64
2021/05/04 03:53:46;;;;;;;1.92;1.77;;;;;;;4.28;33.64;94049.81;4974761;28;20125;-64
2021/05/04 03:56:11;;;;;;;4.07;2.05;;;;;;;4.67;32.79;94038.22;4991578;28;20102;-64
2021/05/04 03:58:36;;;;;;;5.47;2.08;;;;;;;4.32;32.96;94004.25;5017776;28;20116;-64
2021/05/04 04:01:02;;;;;;;3.75;2.10;;;;;;;4.04;33.36;94015.81;5021525;28;20466;-64
2021/05/04 04:03:27;;;;;;;6.78;2.13;;;;;;;3.31;34.75;94000.13;5016590;28;20102;-64
2021/05/04 04:05:53;;;;;;;18.77;2.78;;;;;;;3.44;34.30;94008.53;5013469;28;20432;-64
2021/05/04 04:08:19;;;;;;;5.90;2.20;;;;;;;3.20;35.01;94004.69;5019749;28;20078;-64
2021/05/04 04:10:45;;;;;;;2.92;2.00;;;;;;;3.93;34.76;94052.53;5024196;28;20110;-64
2021/05/04 04:13:11;;;;;;;3.88;2.00;;;;;;;3.61;35.51;94039.09;5012741;28;20082;-64
2021/05/04 04:15:36;;;;;;;3.35;2.10;;;;;;;3.70;35.58;94050.22;5009432;28;20106;-64
2021/05/04 04:18:02;;;;;;;7.28;2.42;;;;;;;2.81;38.01;94026.72;5018902;28;20114;-64
2021/05/04 04:20:27;;;;;;;4.80;2.17;;;;;;;2.78;38.66;94016.03;5018986;28;20092;-64
2021/05/04 04:22:53;;;;;;;6.28;2.30;;;;;;;2.65;40.35;94026.28;4994960;28;20653;-64
2021/05/04 04:25:18;;;;;;;2.90;1.80;;;;;;;2.58;41.50;94023.59;5007650;28;20086;-64
2021/05/04 04:27:43;;;;;;;6.03;2.10;;;;;;;1.71;42.29;94042.88;5006700;28;20590;-64
2021/05/04 04:30:10;;;;;;;10.52;2.20;;;;;;;1.65;42.94;93996.38;5009562;28;20121;-64
2021/05/04 04:32:35;;;;;;;2.53;1.77;;;;;;;1.46;44.28;94017.91;5010085;28;20533;-64
2021/05/04 04:35:01;;;;;;;5.10;1.88;;;;;;;0.73;46.22;94014.94;5009634;28;20129;-64
2021/05/04 04:37:26;;;;;;;4.13;2.00;;;;;;;1.32;46.69;94031.13;5010164;28;20086;-64
2021/05/04 04:39:51;;;;;;;3.30;1.85;;;;;;;1.80;47.30;94026.59;4998257;28;20094;-64
2021/05/04 04:42:17;;;;;;;4.43;2.28;;;;;;;1.38;49.39;94016.31;4996506;28;20099;-64
2021/05/04 04:44:42;;;;;;;3.17;2.10;;;;;;;1.61;48.56;94016.91;4993593;28;20169;-65
2021/05/04 04:47:08;;;;;;;6.20;2.10;;;;;;;1.02;50.08;94039.22;4999965;28;20091;-64
2021/05/04 04:49:33;;;;;;;4.25;2.30;;;;;;;0.57;54.74;94009.06;5010534;28;20086;-64
2021/05/04 04:51:59;;;;;;;6.72;2.20;;;;;;;0.37;56.07;94024.41;4995005;28;20077;-64
2021/05/04 04:54:24;;;;;;;2.25;2.05;;;;;;;0.08;57.33;94015.25;4995205;28;20121;-64
2021/05/04 04:56:50;;;;;;;6.07;2.83;;;;;;;-0.49;59.56;94025.09;5001670;28;20089;-64
2021/05/04 04:59:15;;;;;;;9.27;2.75;;;;;;;0.00;56.44;94110.16;4992368;28;20114;-64
2021/05/04 05:01:41;;;;;;;4.22;3.03;;;;;;;-0.13;59.82;94026.38;5000958;28;20075;-64
2021/05/04 05:04:06;;;;;;;7.90;2.65;;;;;;;-1.01;63.79;94029.13;5004508;28;20519;-65
2021/05/04 05:06:32;;;;;;;5.50;2.45;;;;;;;-0.50;63.38;94040.25;4993746;28;20559;-65
2021/05/04 05:08:58;;;;;;;2.75;2.47;;;;;;;-1.06;63.89;94027.53;4990859;28;20177;-64
2021/05/04 05:11:23;;;;;;;3.30;2.33;;;;;;;-0.45;63.52;94045.25;4999928;28;20334;-65
2021/05/04 05:13:49;;;;;;;4.03;2.00;;;;;;;-0.09;61.69;94013.13;4990282;28;20543;-65
2021/05/04 05:16:17;;;;;;;4.15;2.15;;;;;;;0.08;60.75;94020.59;5002431;28;20202;-65
2021/05/04 05:18:42;;;;;;;3.37;2.37;;;;;;;0.13;59.51;94026.34;5006049;28;20117;-65
2021/05/04 05:21:08;;;;;;;9.93;5.15;;;;;;;-0.33;61.73;94027.59;4995156;28;20337;-63
2021/05/04 05:23:33;;;;;;;3.55;2.60;;;;;;;-0.83;62.46;94030.19;4974606;28;20209;-64
2021/05/04 05:26:02;;;;;;;3.03;2.50;;;;;;;-0.33;62.27;94044.31;4996572;28;20103;-65
2021/05/04 05:28:27;;;;;;;2.80;2.30;;;;;;;-0.23;62.24;94011.03;4994207;28;20079;-65
2021/05/04 05:30:53;;;;;;;3.28;2.33;;;;;;;0.16;61.05;94038.19;4998904;28;20582;-65
2021/05/04 05:33:19;;;;;;;5.40;2.60;;;;;;;0.44;60.45;94011.19;4996617;28;20114;-65
2021/05/04 05:35:45;;;;;;;3.72;2.40;;;;;;;0.90;58.72;93997.59;4999305;28;20584;-65
2021/05/04 05:38:10;;;;;;;5.22;2.63;;;;;;;-1.03;61.74;94002.94;4989738;28;20147;-64
2021/05/04 05:40:36;;;;;;;5.25;2.13;;;;;;;-0.33;60.69;93991.16;5002255;28;20082;-64
2021/05/04 05:43:01;;;;;;;5.05;2.40;;;;;;;-0.03;60.06;93988.50;4997081;28;20480;-65
2021/05/04 05:45:26;;;;;;;3.03;1.92;;;;;;;0.66;58.58;93996.97;5002527;28;20566;-65
2021/05/04 05:47:52;;;;;;;5.63;2.17;;;;;;;0.07;59.47;94003.84;4999182;28;20581;-65
2021/05/04 05:50:17;;;;;;;4.03;2.47;;;;;;;-0.37;60.27;94008.16;5004184;28;20117;-64
2021/05/04 05:52:43;;;;;;;2.95;1.98;;;;;;;0.23;59.43;93994.94;4993288;28;20795;-64
2021/05/04 05:55:09;;;;;;;2.63;1.90;;;;;;;0.38;59.24;93989.44;4993243;28;20110;-65
2021/05/04 05:57:35;;;;;;;5.15;2.47;;;;;;;-0.86;61.78;94016.88;4992110;28;20231;-65
2021/05/04 06:00:00;;;;;;;5.13;2.38;;;;;;;0.08;59.56;94005.38;5002575;28;20518;-65
2021/05/04 06:02:25;;;;;;;5.38;2.60;;;;;;;0.18;60.26;93995.25;4994615;28;20126;-65
2021/05/04 06:04:52;;;;;;;2.88;2.33;;;;;;;0.43;59.30;93983.03;4996999;28;20475;-65
2021/05/04 06:07:17;;;;;;;4.18;2.08;;;;;;;0.27;58.34;93999.16;5002106;28;20109;-64
2021/05/04 06:09:43;;;;;;;3.10;2.20;;;;;;;0.27;58.45;93995.72;4990043;28;20114;-64
2021/05/04 06:12:08;;;;;;;3.28;2.40;;;;;;;0.67;57.48;93987.84;4990327;28;20086;-65
2021/05/04 06:14:34;;;;;;;3.22;2.00;;;;;;;0.59;57.51;94004.13;4994092;28;20407;-65
2021/05/04 06:16:59;;;;;;;6.78;4.22;;;;;;;0.97;56.84;94002.25;4998084;28;20308;-65
2021/05/04 06:19:25;;;;;;;3.40;2.10;;;;;;;0.95;57.01;94000.72;5000698;28;20106;-64
2021/05/04 06:21:50;;;;;;;5.60;2.67;;;;;;;0.38;58.13;93996.66;4996990;28;20112;-64
2021/05/04 06:24:15;;;;;;;3.00;2.13;;;;;;;0.32;58.46;93998.09;4999900;28;20098;-64
2021/05/04 06:26:41;;;;;;;4.43;2.13;;;;;;;0.39;57.38;93988.31;5001494;28;20106;-64
2021/05/04 06:29:08;;;;;;;2.30;2.10;;;;;;;-0.23;60.25;94003.81;5003123;28;20566;-65
2021/05/04 06:31:33;;;;;;;5.80;1.75;;;;;;;0.10;59.64;94005.78;4999814;28;20105;-64
2021/05/04 06:33:59;;;;;;;2.25;1.70;;;;;;;0.11;59.04;94015.31;4998556;28;20187;-64
2021/05/04 06:36:24;;;;;;;3.67;2.00;;;;;;;-0.01;58.89;94031.50;4995167;28;20124;-64
2021/05/04 06:38:50;;;;;;;3.55;1.88;;;;;;;-0.50;59.94;94018.22;5001313;28;20110;-64
2021/05/04 06:41:15;;;;;;;2.90;1.58;;;;;;;-0.02;58.56;94000.69;4993529;28;20087;-64
2021/05/04 06:43:41;;;;;;;5.30;2.05;;;;;;;-0.13;58.06;93997.13;4993498;28;20617;-64
2021/05/04 06:46:07;;;;;;;4.15;1.60;;;;;;;0.45;58.25;94014.59;4998054;28;20128;-64
2021/05/04 06:48:32;;;;;;;2.28;1.90;;;;;;;-0.11;58.01;94010.81;4992411;28;20141;-64
2021/05/04 06:50:58;;;;;;;2.30;2.05;;;;;;;0.18;58.81;93984.59;4994553;28;20532;-65
2021/05/04 06:53:24;;;;;;;2.15;1.88;;;;;;;0.18;57.59;93996.00;5001661;28;20472;-65
2021/05/04 06:55:50;;;;;;;2.20;1.30;;;;;;;-0.25;59.35;94006.06;4995691;28;20197;-65
2021/05/04 06:58:15;;;;;;;1.88;1.70;;;;;;;-0.10;58.42;93987.63;5001744;28;20193;-64
2021/05/04 07:00:41;;;;;;;2.13;1.60;;;;;;;0.24;57.87;93973.28;4997492;28;20086;-64
2021/05/04 07:03:06;;;;;;;2.70;1.90;;;;;;;-0.12;58.56;93971.28;5001559;28;20118;-65
2021/05/04 07:05:32;;;;;;;2.85;1.90;;;;;;;0.20;57.29;93951.16;5007191;28;20090;-64
2021/05/04 07:07:57;;;;;;;2.55;1.95;;;;;;;0.23;57.44;93963.00;5007415;28;20086;-65
2021/05/04 07:10:23;;;;;;;3.40;1.75;;;;;;;-0.04;58.00;93970.25;5002907;28;20176;-65
2021/05/04 07:12:48;;;;;;;2.17;1.60;;;;;;;0.29;57.71;93985.47;4992278;28;20101;-63
2021/05/04 07:15:14;;;;;;;6.65;2.97;;;;;;;-0.90;60.95;93957.59;5003954;28;20490;-63
2021/05/04 07:17:39;;;;;;;2.45;1.90;;;;;;;-0.16;59.35;93958.72;5011438;28;20082;-63
2021/05/04 07:20:05;;;;;;;2.63;2.10;;;;;;;-0.11;59.54;93965.59;5016934;28;20875;-63
2021/05/04 07:22:33;;;;;;;2.90;2.60;;;;;;;0.13;58.10;93938.53;5021187;28;20189;-63
2021/05/04 07:24:59;;;;;;;2.42;1.88;;;;;;;0.16;58.38;93970.91;5021651;28;20090;-63
2021/05/04 07:27:24;;;;;;;3.90;1.70;;;;;;;0.35;58.66;93992.06;5029418;28;20167;-64
2021/05/04 07:29:50;;;;;;;8.88;4.05;;;;;;;0.32;58.27;94009.50;5020291;28;20106;-64
2021/05/04 07:32:17;;;;;;;3.10;2.00;;;;;;;0.17;58.85;93972.44;5015738;28;20101;-64
2021/05/04 07:34:43;;;;;;;2.15;1.80;;;;;;;-0.21;60.13;94001.56;5017634;28;20110;-64
2021/05/04 07:37:09;;;;;;;3.25;2.08;;;;;;;0.01;58.95;93970.72;5016161;28;20077;-63
2021/05/04 07:39:34;;;;;;;4.65;2.08;;;;;;;-0.35;60.79;93952.72;5021670;28;20156;-64
2021/05/04 07:42:00;;;;;;;1.88;1.73;;;;;;;-0.48;60.76;93963.59;5011274;28;20458;-64
2021/05/04 07:44:25;;;;;;;2.92;1.90;;;;;;;-0.50;60.60;93975.69;5017304;28;20090;-64
2021/05/04 07:46:51;;;;;;;2.22;1.70;;;;;;;-0.30;60.64;93947.88;5022606;28;20098;-63
2021/05/04 07:49:30;;;;;;;1.98;1.50;;;;;;;-0.04;59.71;93962.28;5012735;28;20089;-63
2021/05/04 07:51:56;;;;;;;3.00;1.50;;;;;;;0.34;59.01;93951.34;5022585;28;20513;-63
2021/05/04 07:54:21;;;;;;;2.17;1.77;;;;;;;-0.16;59.88;93987.19;5017480;28;20102;-63
2021/05/04 07:56:47;;;;;;;3.83;1.90;;;;;;;-0.19;60.56;93953.34;5019110;28;20090;-63
2021/05/04 07:59:13;;;;;;;3.67;1.90;;;;;;;-0.57;61.57;93968.38;5015874;28;20134;-63
2021/05/04 08:01:38;;;;;;;3.00;2.00;;;;;;;-0.26;60.99;93979.81;5010809;28;20428;-63
2021/05/04 08:04:04;;;;;;;2.33;1.70;;;;;;;-0.23;61.55;93979.88;5012098;28;20105;-63
2021/05/04 08:06:29;;;;;;;2.38;2.08;;;;;;;-0.18;61.09;93960.22;5017354;28;20114;-63
2021/05/04 08:08:55;;;;;;;2.45;1.95;;;;;;;-0.43;62.22;93951.88;5024299;28;20546;-63
2021/05/04 08:11:20;;;;;;;4.80;3.10;;;;;;;0.59;59.21;93956.97;5015716;28;20137;-63
2021/05/04 08:13:45;;;;;;;2.13;1.80;;;;;;;0.52;58.84;93972.09;5026351;28;20101;-63
2021/05/04 08:16:13;;;;;;;3.38;1.80;;;;;;;-0.10;60.84;93967.16;5025869;28;20070;-63
2021/05/04 08:18:39;;;;;;;3.03;1.95;;;;;;;-0.56;61.15;93956.63;5024093;28;20102;-62
2021/05/04 08:21:05;;;;;;;2.22;1.75;;;;;;;-0.49;62.34;93971.91;5012024;28;20566;-62
2021/05/04 08:23:30;;;;;;;2.95;2.03;;;;;;;-0.62;62.44;93984.63;5013970;28;20101;-62
2021/05/04 08:25:56;;;;;;;2.53;2.00;;;;;;;-0.22;61.34;93978.00;5029385;28;20145;-64
2021/05/04 08:28:21;;;;;;;2.00;1.90;;;;;;;-0.43;62.49;93954.53;5025066;28;20082;-64
2021/05/04 08:30:47;;;;;;;3.40;2.63;;;;;;;-0.04;61.41;93955.06;5022126;28;20164;-63
2021/05/04 08:33:12;;;;;;;1.70;1.52;;;;;;;0.11;60.46;93964.75;5018493;28;20191;-63
2021/05/04 08:35:38;;;;;;;2.47;1.80;;;;;;;-0.00;61.24;93971.06;5027815;28;20477;-64
2021/05/04 08:38:03;;;;;;;2.67;1.48;;;;;;;0.39;59.95;93967.03;5010629;28;20582;-63
2021/05/04 08:40:29;;;;;;;1.73;1.38;;;;;;;0.73;58.38;93969.66;5017726;28;20566;-63
2021/05/04 08:42:54;;;;;;;4.70;1.90;;;;;;;0.50;59.60;93972.47;5024762;28;20117;-63
2021/05/04 08:45:20;;;;;;;2.38;1.90;;;;;;;0.07;60.47;93955.22;5013978;28;20266;-63
2021/05/04 08:47:47;;;;;;;1.95;1.75;;;;;;;0.05;61.47;93960.09;5019540;28;20182;-63
2021/05/04 08:50:18;;;;;;;2.13;1.60;;;;;;;0.06;60.91;93959.00;5012160;28;20148;-63
2021/05/04 08:52:43;;;;;;;1.83;1.70;;;;;;;-0.31;61.97;93951.66;5024904;28;20430;-63
2021/05/04 08:55:10;;;;;;;2.00;1.83;;;;;;;-0.04;61.47;93980.88;5024364;28;20160;-63
2021/05/04 09:49:50;;;;;;;3.40;2.60;;;;;;;-2.45;74.03;93958.44;5057319;27;20814;-63
2021/05/04 09:52:35;;;;;;;3.00;2.20;;;;;;;-1.43;70.15;93920.31;5018494;28;20519;-63
2021/05/04 09:55:15;;;;;;;2.20;2.00;;;;;;;-0.78;67.58;93946.78;4992711;28;20121;-63
2021/05/04 09:57:44;;;;;;;2.97;2.17;;;;;;;-0.16;64.87;93945.41;4982640;28;20106;-63
2021/05/04 10:00:15;;;;;;;3.92;2.63;;;;;;;-0.29;65.15;93930.03;4993743;28;20504;-64
2021/05/04 10:02:41;;;;;;;20.33;12.82;;;;;;;0.77;62.19;93943.06;4999717;28;20202;-64
2021/05/04 10:05:14;;;;;;;4.72;2.47;;;;;;;0.99;60.55;93952.78;4992256;28;20201;-64
2021/05/04 10:07:41;;;;;;;3.03;2.10;;;;;;;0.22;62.63;93953.50;4996932;28;20176;-64
2021/05/04 10:10:08;;;;;;;3.08;2.00;;;;;;;0.52;61.93;93950.78;4997679;28;20106;-64
2021/05/04 10:12:33;;;;;;;2.88;2.00;;;;;;;0.16;63.05;93942.41;4999448;28;20694;-65
2021/05/04 10:15:06;;;;;;;2.30;2.10;;;;;;;0.93;62.01;93924.97;4998667;28;20126;-63
2021/05/04 10:17:35;;;;;;;6.45;3.47;;;;;;;1.33;60.70;93928.72;4998646;28;20185;-65
2021/05/04 10:20:06;;;;;;;8.45;4.18;;;;;;;1.38;59.78;93939.78;4995522;28;20185;-65
2021/05/04 10:22:33;;;;;;;4.95;1.90;;;;;;;0.85;61.36;93924.13;4995512;28;20094;-65
2021/05/04 10:24:59;;;;;;;4.50;3.05;;;;;;;1.67;58.98;93922.06;4998293;28;20586;-65
2021/05/04 10:27:24;;;;;;;5.68;3.40;;;;;;;1.73;58.79;93931.25;5003194;28;20111;-64
2021/05/04 10:29:51;;;;;;;2.25;1.70;;;;;;;2.36;57.44;93910.59;4997982;28;20164;-64
2021/05/04 10:32:36;;;;;;;3.75;2.00;;;;;;;1.52;59.70;93907.13;4996424;28;20426;-64
2021/05/04 10:35:28;;;;;;;5.45;2.03;;;;;;;1.61;59.25;93925.47;4983991;28;20103;-64
2021/05/04 10:37:56;;;;;;;3.13;2.13;;;;;;;2.09;57.57;93910.06;4998101;28;20109;-64
2021/05/04 10:40:22;;;;;;;;;;;;;;;2.29;57.35;93921.25;4998993;28;20867;-64
2021/05/04 10:42:47;;;;;;;2.05;1.92;;;;;;;2.78;55.44;93917.19;4994469;28;20109;-64
2021/05/04 10:45:13;;;;;;;6.45;3.45;;;;;;;1.98;56.98;93911.94;4994016;28;20547;-65
2021/05/04 10:47:38;;;;;;;3.60;1.90;;;;;;;1.73;58.29;93912.59;4991239;28;20114;-65
2021/05/04 10:50:07;;;;;;;3.75;2.00;;;;;;;2.03;57.74;93912.34;4987163;28;20213;-65
2021/05/04 10:52:52;;;;;;;5.70;3.28;;;;;;;2.41;56.11;93920.13;4959227;28;20118;-64
2021/05/04 10:55:18;;;;;;;2.85;1.70;;;;;;;2.90;56.07;93924.81;4992128;28;20098;-64
2021/05/04 10:58:02;;;;;;;1.98;1.75;;;;;;;2.58;57.58;93903.38;4992814;28;20106;-65
2021/05/04 11:00:48;;;;;;;3.92;1.67;;;;;;;2.77;56.79;93915.66;4982711;28;20144;-65
2021/05/04 11:03:29;;;;;;;2.45;2.20;;;;;;;1.57;60.70;93920.13;4926664;28;20503;-64
2021/05/04 11:06:04;;;;;;;2.78;2.13;;;;;;;1.72;60.32;93927.06;4980649;28;20145;-64
2021/05/04 11:08:44;;;;;;;5.95;2.35;;;;;;;2.06;60.24;93926.84;4978032;28;20185;-65
2021/05/04 11:11:29;;;;;;;4.45;2.78;;;;;;;2.18;58.62;93939.09;4986317;28;20502;-65
2021/05/04 11:14:15;;;;;;;3.55;2.30;;;;;;;2.38;58.32;93927.00;4984592;28;20336;-65
2021/05/04 11:16:42;;;;;;;2.65;2.10;;;;;;;2.34;58.63;93892.25;4978318;28;20389;-64
2021/05/04 11:19:17;;;;;;;6.55;2.03;;;;;;;2.78;56.76;93914.50;4973726;28;20560;-64
2021/05/04 11:21:43;;;;;;;3.55;2.20;;;;;;;2.99;55.43;93893.16;4980954;28;20559;-65
2021/05/04 11:24:22;;;;;;;4.82;2.22;;;;;;;3.03;56.03;93914.53;4980451;28;20083;-66
2021/05/04 11:26:48;;;;;;;3.00;2.10;;;;;;;3.28;54.86;93891.22;4985764;28;20217;-66
2021/05/04 11:29:14;;;;;;;2.47;2.17;;;;;;;3.66;55.02;93878.19;4979922;28;20102;-65
2021/05/04 11:31:41;;;;;;;5.38;2.50;;;;;;;3.82;53.25;93888.50;4984965;28;20447;-65
2021/05/04 11:34:32;;;;;;;5.60;3.65;;;;;;;2.72;56.75;93882.06;4979289;28;20113;-65
2021/05/04 11:36:57;;;;;;;4.25;2.05;;;;;;;3.50;55.06;93880.50;4981342;28;20520;-65
2021/05/04 11:39:23;;;;;;;6.88;2.22;;;;;;;3.22;55.55;93884.75;4983254;28;20205;-65
2021/05/04 11:41:58;;;;;;;3.13;1.65;;;;;;;4.41;52.59;93851.94;4979200;28;20113;-65
2021/05/04 11:44:31;;;;;;;4.28;1.90;;;;;;;4.65;52.50;93889.69;4982937;28;20092;-65
2021/05/04 11:47:16;;;;;;;2.22;2.00;;;;;;;4.53;53.16;93858.72;4979808;28;20134;-65
2021/05/04 11:49:42;;;;;;;3.17;1.85;;;;;;;4.44;52.50;93895.91;4977742;28;20119;-65
2021/05/04 11:52:08;;;;;;;3.28;2.22;;;;;;;4.56;52.00;93868.69;4985401;28;20530;-65
2021/05/04 11:54:33;;;;;;;2.88;1.90;;;;;;;4.51;52.17;93863.72;4984308;28;20099;-65
2021/05/04 11:57:00;;;;;;;4.55;2.35;;;;;;;4.40;52.79;93863.81;4983688;28;20117;-65
2021/05/04 11:59:29;;;;;;;2.47;1.70;;;;;;;4.87;51.26;93874.97;4981921;28;20666;-66
2021/05/04 12:01:54;;;;;;;6.85;1.80;;;;;;;4.70;51.43;93860.53;4980804;28;20615;-66
2021/05/04 12:04:21;;;;;;;4.35;1.90;;;;;;;4.30;52.65;93907.44;4980314;28;20085;-65
2021/05/04 12:06:47;;;;;;;2.30;2.00;;;;;;;4.00;54.64;93881.94;4983790;28;20126;-65
2021/05/04 12:09:16;;;;;;;2.67;1.85;;;;;;;5.09;51.42;93868.28;4984649;28;20138;-65
2021/05/04 12:11:41;;;;;;;6.95;2.10;;;;;;;4.52;51.64;93887.44;4982101;28;20535;-65
2021/05/04 12:14:07;;;;;;;4.15;2.05;;;;;;;4.28;51.85;93899.81;4981708;28;20103;-65
2021/05/04 12:16:33;;;;;;;4.05;2.50;;;;;;;4.69;50.69;93888.50;4983940;28;20597;-65
2021/05/04 12:18:58;;;;;;;12.43;2.30;;;;;;;4.22;53.37;93866.53;4984712;28;20094;-65
2021/05/04 12:21:24;;;;;;;5.10;2.63;;;;;;;4.82;50.59;93838.63;4983916;28;20083;-65
2021/05/04 12:23:49;;;;;;;4.45;2.08;;;;;;;5.19;50.36;93841.78;4982332;28;20087;-65
2021/05/04 12:26:17;;;;;;;3.00;2.28;;;;;;;5.80;48.94;93823.94;4983730;28;20110;-65
2021/05/04 12:28:56;;;;;;;3.53;2.20;;;;;;;5.29;49.42;93824.88;4984342;28;20190;-75